createdAt,value
2018-07-20T00:00:22.690Z,101186.20
2018-07-20T00:02:51.516Z,101191.52
2018-07-20T00:05:20.352Z,101187.95
2018-07-20T00:07:49.211Z,101180.62
2018-07-20T00:10:18.264Z,101182.84
2018-07-20T00:12:47.138Z,101186.65
2018-07-20T00:15:15.950Z,101177.41
2018-07-20T00:21:22.767Z,101174.66
2018-07-20T00:23:51.852Z,101169.55
2018-07-20T00:26:20.670Z,101175.37
2018-07-20T00:28:49.546Z,101177.59
2018-07-20T00:31:18.409Z,101174.86
2018-07-20T00:33:47.258Z,101177.44
2018-07-20T00:36:16.117Z,101170.78
2018-07-20T00:38:44.934Z,101167.95
2018-07-20T00:42:12.648Z,101162.72
2018-07-20T00:44:41.496Z,101157.50
2018-07-20T00:47:10.492Z,101152.28
2018-07-20T00:49:39.331Z,101147.91
2018-07-20T00:52:08.183Z,101148.17
2018-07-20T00:54:37.016Z,101141.34
2018-07-20T00:57:05.859Z,101145.98
2018-07-20T00:59:34.717Z,101140.01
2018-07-20T01:02:03.572Z,101145.32
2018-07-20T01:04:32.423Z,101136.27
2018-07-20T01:07:01.277Z,101141.02
2018-07-20T01:09:30.148Z,101141.91
2018-07-20T01:11:59.012Z,101139.85
2018-07-20T01:14:27.869Z,101138.47
2018-07-20T01:16:56.738Z,101139.11
2018-07-20T01:19:25.572Z,101141.19
2018-07-20T01:21:54.451Z,101141.69
2018-07-20T01:24:23.300Z,101143.91
2018-07-20T01:26:52.178Z,101140.63
2018-07-20T01:29:21.171Z,101137.52
2018-07-20T01:31:50.070Z,101129.83
2018-07-20T01:34:18.924Z,101129.49
2018-07-20T01:36:47.804Z,101128.27
2018-07-20T01:39:16.645Z,101124.50
2018-07-20T01:41:45.498Z,101131.50
2018-07-20T01:44:14.326Z,101130.94
2018-07-20T01:46:43.171Z,101129.14
2018-07-20T01:49:12.198Z,101128.74
2018-07-20T01:51:41.053Z,101130.41
2018-07-20T01:54:09.926Z,101126.47
2018-07-20T01:56:38.805Z,101127.67
2018-07-20T01:59:07.665Z,101133.59
2018-07-20T02:01:36.520Z,101127.89
2018-07-20T02:04:05.479Z,101125.45
2018-07-20T02:06:34.332Z,101130.16
2018-07-20T02:09:03.440Z,101124.78
2018-07-20T02:11:49.986Z,101124.25
2018-07-20T02:14:19.096Z,101126.43
2018-07-20T02:16:47.956Z,101118.91
2018-07-20T02:19:16.786Z,101120.27
2018-07-20T02:21:45.636Z,101118.55
2018-07-20T02:24:14.466Z,101112.43
2018-07-20T02:26:43.316Z,101112.78
2018-07-20T02:29:12.139Z,101114.11
2018-07-20T02:31:40.995Z,101119.02
2018-07-20T02:34:27.393Z,101118.28
2018-07-20T02:36:56.260Z,101120.61
2018-07-20T02:39:25.094Z,101111.52
2018-07-20T02:41:53.915Z,101114.61
2018-07-20T02:44:22.774Z,101115.83
2018-07-20T02:46:51.628Z,101114.34
2018-07-20T02:49:20.488Z,101117.19
2018-07-20T02:51:49.330Z,101112.19
2018-07-20T02:54:18.178Z,101116.03
2018-07-20T02:57:23.083Z,101117.58
2018-07-20T02:59:51.938Z,101112.59
2018-07-20T03:02:20.781Z,101111.13
2018-07-20T03:04:49.653Z,101117.94
2018-07-20T03:07:18.507Z,101112.99
2018-07-20T03:09:47.349Z,101117.23
2018-07-20T03:12:16.207Z,101113.94
2018-07-20T03:14:45.054Z,101113.58
2018-07-20T03:17:13.906Z,101112.63
2018-07-20T03:19:42.795Z,101116.36
2018-07-20T03:22:11.656Z,101120.55
2018-07-20T03:24:40.501Z,101115.37
2018-07-20T03:27:09.354Z,101112.25
2018-07-20T03:29:38.198Z,101111.94
2018-07-20T03:32:07.293Z,101118.75
2018-07-20T03:34:36.135Z,101107.33
2018-07-20T03:37:05.031Z,101117.27
2018-07-20T03:39:33.914Z,101110.45
2018-07-20T03:45:32.224Z,101106.59
2018-07-20T03:48:01.084Z,101104.06
2018-07-20T03:50:30.143Z,101104.48
2018-07-20T03:52:58.989Z,101103.56
2018-07-20T03:55:27.888Z,101099.60
2018-07-20T03:57:56.759Z,101098.52
2018-07-20T04:00:25.610Z,101105.08
2018-07-20T04:02:54.469Z,101105.98
2018-07-20T04:05:23.315Z,101101.27
2018-07-20T04:07:52.160Z,101104.97
2018-07-20T04:10:21.118Z,101100.83
2018-07-20T04:12:49.889Z,101097.39
2018-07-20T04:15:18.701Z,101096.39
2018-07-20T04:17:47.539Z,101098.55
2018-07-20T04:20:17.036Z,101100.95
2018-07-20T04:22:45.866Z,101101.78
2018-07-20T04:25:14.698Z,101103.14
2018-07-20T04:27:52.276Z,101108.34
2018-07-20T04:30:21.136Z,101107.28
2018-07-20T04:32:49.984Z,101105.53
2018-07-20T04:35:18.834Z,101103.20
2018-07-20T04:37:47.683Z,101100.12
2018-07-20T04:40:16.548Z,101103.91
2018-07-20T04:42:45.399Z,101099.84
2018-07-20T04:45:14.282Z,101103.43
2018-07-20T04:47:43.125Z,101102.57
2018-07-20T04:51:07.427Z,101093.72
2018-07-20T04:53:36.276Z,101092.51
2018-07-20T04:56:05.203Z,101086.56
2018-07-20T04:58:34.015Z,101081.44
2018-07-20T05:01:02.837Z,101076.17
2018-07-20T05:03:31.705Z,101073.14
2018-07-20T05:06:00.591Z,101072.09
2018-07-20T05:08:29.431Z,101071.78
2018-07-20T05:10:58.290Z,101068.53
2018-07-20T05:13:27.110Z,101071.41
2018-07-20T05:15:55.959Z,101067.88
2018-07-20T05:18:24.794Z,101064.90
2018-07-20T05:20:53.658Z,101062.59
2018-07-20T05:23:22.519Z,101057.04
2018-07-20T05:25:51.332Z,101060.90
2018-07-20T05:28:20.203Z,101057.08
2018-07-20T05:30:49.033Z,101062.57
2018-07-20T05:33:18.088Z,101058.17
2018-07-20T05:35:47.670Z,101056.50
2018-07-20T05:38:16.533Z,101051.42
2018-07-20T05:40:45.383Z,101050.28
2018-07-20T05:43:14.271Z,101052.03
2018-07-20T05:45:43.098Z,101055.48
2018-07-20T05:48:11.938Z,101051.98
2018-07-20T05:50:40.806Z,101047.39
2018-07-20T05:53:09.671Z,101052.06
2018-07-20T05:55:38.590Z,101045.77
2018-07-20T05:58:25.223Z,101044.94
2018-07-20T06:00:54.091Z,101046.32
2018-07-20T06:03:22.945Z,101039.80
2018-07-20T06:05:51.824Z,101041.62
2018-07-20T06:08:20.656Z,101038.72
2018-07-20T06:10:49.540Z,101030.34
2018-07-20T06:13:18.396Z,101041.49
2018-07-20T06:15:47.232Z,101038.11
2018-07-20T06:18:16.216Z,101029.83
2018-07-20T06:20:48.065Z,101030.03
2018-07-20T06:23:16.929Z,101034.21
2018-07-20T06:25:45.873Z,101033.05
2018-07-20T06:28:14.764Z,101027.52
2018-07-20T06:30:43.613Z,101023.92
2018-07-20T06:33:12.453Z,101022.69
2018-07-20T06:35:41.293Z,101025.56
2018-07-20T06:38:10.147Z,101027.13
2018-07-20T06:40:39.004Z,101023.59
2018-07-20T06:43:15.228Z,101016.73
2018-07-20T06:45:44.112Z,101015.80
2018-07-20T06:48:12.945Z,101020.16
2018-07-20T06:50:41.772Z,101012.17
2018-07-20T06:53:10.623Z,101010.34
2018-07-20T06:55:39.465Z,101009.89
2018-07-20T06:58:08.278Z,101007.84
2018-07-20T07:00:37.181Z,101012.72
2018-07-20T07:03:06.043Z,101006.35
2018-07-20T07:05:34.856Z,101009.94
2018-07-20T07:08:03.726Z,101011.14
2018-07-20T07:10:32.547Z,101008.25
2018-07-20T07:13:01.410Z,101015.25
2018-07-20T07:15:30.270Z,101012.81
2018-07-20T07:17:59.092Z,101012.40
2018-07-20T07:20:27.961Z,101013.09
2018-07-20T07:22:56.816Z,101006.96
2018-07-20T07:25:25.658Z,101006.09
2018-07-20T07:27:54.502Z,101001.82
2018-07-20T07:30:23.342Z,101006.33
2018-07-20T07:32:52.237Z,101007.05
2018-07-20T07:35:21.122Z,101013.68
2018-07-20T07:37:49.991Z,101008.77
2018-07-20T07:40:18.855Z,101008.63
2018-07-20T07:42:47.702Z,101010.77
2018-07-20T07:45:16.563Z,101014.72
2018-07-20T07:47:45.430Z,101008.91
2018-07-20T07:50:14.277Z,101009.14
2018-07-20T07:52:43.143Z,101002.26
2018-07-20T07:55:12.018Z,101002.13
2018-07-20T07:57:41.072Z,101003.00
2018-07-20T08:00:09.909Z,100997.53
2018-07-20T08:02:38.753Z,100998.05
2018-07-20T08:05:07.606Z,100995.91
2018-07-20T08:07:36.426Z,100994.10
2018-07-20T08:10:05.498Z,100993.61
2018-07-20T08:12:34.346Z,100997.92
2018-07-20T08:15:03.175Z,100986.23
2018-07-20T08:17:32.010Z,100993.17
2018-07-20T08:20:00.985Z,100985.70
2018-07-20T08:22:29.829Z,100981.63
2018-07-20T08:24:58.649Z,100983.46
2018-07-20T08:27:27.713Z,100972.52
2018-07-20T08:29:56.550Z,100967.16
2018-07-20T08:32:25.403Z,100975.14
2018-07-20T08:34:55.589Z,100971.86
2018-07-20T08:37:24.659Z,100964.04
2018-07-20T08:39:53.541Z,100969.53
2018-07-20T08:42:22.408Z,100970.56
2018-07-20T08:44:51.271Z,100969.34
2018-07-20T08:47:20.132Z,100971.13
2018-07-20T08:49:48.999Z,100963.83
2018-07-20T08:52:17.898Z,100966.81
2018-07-20T08:54:46.719Z,100959.37
2018-07-20T08:57:24.106Z,100964.41
2018-07-20T08:59:53.003Z,100961.22
2018-07-20T09:02:21.799Z,100956.55
2018-07-20T09:04:50.646Z,100957.38
2018-07-20T09:07:19.509Z,100957.50
2018-07-20T09:09:48.307Z,100956.51
2018-07-20T09:12:17.168Z,100958.51
2018-07-20T09:14:46.024Z,100954.69
2018-07-20T09:17:14.957Z,100952.18
2018-07-20T09:19:43.860Z,100954.34
2018-07-20T09:22:12.722Z,100949.67
2018-07-20T09:24:41.540Z,100951.72
2018-07-20T09:27:10.428Z,100949.52
2018-07-20T09:29:39.357Z,100952.81
2018-07-20T09:32:08.206Z,100943.16
2018-07-20T09:34:37.076Z,100941.97
2018-07-20T09:37:06.008Z,100945.36
2018-07-20T09:39:34.874Z,100937.23
2018-07-20T09:42:07.353Z,100941.39
2018-07-20T09:44:36.193Z,100941.64
2018-07-20T09:47:05.067Z,100948.02
2018-07-20T09:49:33.923Z,100950.06
2018-07-20T09:52:02.735Z,100946.72
2018-07-20T09:54:31.617Z,100937.00
2018-07-20T09:57:00.428Z,100936.53
2018-07-20T09:59:29.408Z,100940.52
2018-07-20T10:01:58.343Z,100937.81
2018-07-20T10:04:27.304Z,100941.47
2018-07-20T10:06:56.113Z,100941.26
2018-07-20T10:09:24.984Z,100937.25
2018-07-20T10:11:53.823Z,100941.63
2018-07-20T10:14:22.974Z,100935.83
2018-07-20T10:16:51.837Z,100925.60
2018-07-20T10:19:20.923Z,100924.13
2018-07-20T10:21:49.776Z,100928.25
2018-07-20T10:24:18.911Z,100924.09
2018-07-20T10:26:57.885Z,100922.55
2018-07-20T10:29:26.770Z,100927.67
2018-07-20T10:31:55.666Z,100922.64
2018-07-20T10:34:24.537Z,100922.99
2018-07-20T10:36:53.443Z,100917.19
2018-07-20T10:39:22.803Z,100915.48
2018-07-20T10:41:52.084Z,100907.98
2018-07-20T10:44:20.907Z,100908.13
2018-07-20T10:46:49.933Z,100899.88
2018-07-20T10:49:18.960Z,100904.70
2018-07-20T10:51:48.090Z,100907.58
2018-07-20T10:54:16.945Z,100903.47
2018-07-20T10:56:45.800Z,100906.89
2018-07-20T10:59:15.060Z,100902.11
2018-07-20T11:01:43.988Z,100901.28
2018-07-20T11:04:12.905Z,100900.27
2018-07-20T11:06:41.761Z,100898.28
2018-07-20T11:09:10.737Z,100904.58
2018-07-20T11:11:39.728Z,100903.72
2018-07-20T11:14:08.580Z,100896.18
2018-07-20T11:16:37.392Z,100892.84
2018-07-20T11:19:06.257Z,100895.13
2018-07-20T11:21:35.073Z,100890.52
2018-07-20T11:24:03.970Z,100888.56
2018-07-20T11:26:32.839Z,100885.91
2018-07-20T11:29:01.706Z,100873.52
2018-07-20T11:31:30.541Z,100889.13
2018-07-20T11:34:02.556Z,100886.05
2018-07-20T11:36:31.399Z,100878.95
2018-07-20T11:39:00.225Z,100885.67
2018-07-20T11:41:29.084Z,100892.52
2018-07-20T11:43:57.911Z,100880.89
2018-07-20T11:46:26.762Z,100880.23
2018-07-20T11:48:55.571Z,100887.34
2018-07-20T11:51:24.411Z,100874.88
2018-07-20T11:53:53.253Z,100884.36
2018-07-20T11:56:24.457Z,100879.93
2018-07-20T11:58:53.619Z,100866.25
2018-07-20T12:01:22.448Z,100869.06
2018-07-20T12:03:51.387Z,100864.98
2018-07-20T12:06:20.676Z,100865.70
2018-07-20T12:08:50.632Z,100866.73
2018-07-20T12:11:19.613Z,100861.22
2018-07-20T12:13:48.529Z,100877.48
2018-07-20T12:16:17.350Z,100862.31
2018-07-20T12:18:46.206Z,100859.52
2018-07-20T12:21:15.369Z,100861.17
2018-07-20T12:23:44.201Z,100863.77
2018-07-20T12:26:13.049Z,100859.81
2018-07-20T12:28:42.014Z,100848.90
2018-07-20T12:31:10.900Z,100854.47
2018-07-20T12:33:39.729Z,100853.65
2018-07-20T12:36:08.568Z,100851.92
2018-07-20T12:38:40.547Z,100841.36
2018-07-20T12:41:09.751Z,100851.80
2018-07-20T12:43:38.817Z,100846.55
2018-07-20T12:46:07.936Z,100838.69
2018-07-20T12:48:36.808Z,100832.15
2018-07-20T12:51:06.188Z,100831.86
2018-07-20T12:53:35.259Z,100840.09
2018-07-20T12:56:04.121Z,100844.67
2018-07-20T12:58:33.081Z,100832.91
2018-07-20T13:01:01.902Z,100835.39
2018-07-20T13:03:30.748Z,100823.64
2018-07-20T13:05:59.683Z,100825.89
2018-07-20T13:08:28.545Z,100819.17
2018-07-20T13:10:57.361Z,100823.67
2018-07-20T13:13:26.359Z,100824.78
2018-07-20T13:15:55.263Z,100821.66
2018-07-20T13:18:24.125Z,100819.36
2018-07-20T13:20:56.288Z,100821.05
2018-07-20T13:23:25.112Z,100826.48
2018-07-20T13:25:53.969Z,100813.53
2018-07-20T13:28:22.804Z,100826.41
2018-07-20T13:30:51.653Z,100814.08
2018-07-20T13:33:20.528Z,100799.22
2018-07-20T13:35:49.442Z,100798.97
2018-07-20T13:38:18.229Z,100803.78
2018-07-20T13:40:47.069Z,100798.17
2018-07-20T13:43:16.044Z,100788.05
2018-07-20T13:45:44.912Z,100793.36
2018-07-20T13:48:13.757Z,100796.40
2018-07-20T13:50:43.864Z,100793.02
2018-07-20T13:53:12.763Z,100790.25
2018-07-20T13:55:42.860Z,100787.18
2018-07-20T13:58:11.705Z,100781.89
2018-07-20T14:00:40.544Z,100784.11
2018-07-20T14:03:09.497Z,100783.57
2018-07-20T14:05:38.379Z,100788.01
2018-07-20T14:08:07.353Z,100781.33
2018-07-20T14:10:36.257Z,100783.31
2018-07-20T14:13:05.049Z,100777.41
2018-07-20T14:15:34.001Z,100786.59
2018-07-20T14:18:02.879Z,100788.58
2018-07-20T14:20:31.719Z,100781.17
2018-07-20T14:23:00.560Z,100786.89
2018-07-20T14:25:29.428Z,100781.17
2018-07-20T14:27:58.288Z,100771.04
2018-07-20T14:30:27.134Z,100773.88
2018-07-20T14:32:55.999Z,100772.97
2018-07-20T14:35:24.913Z,100782.63
2018-07-20T14:37:53.770Z,100771.63
2018-07-20T14:40:22.632Z,100769.98
2018-07-20T14:42:51.461Z,100764.80
2018-07-20T14:45:27.501Z,100763.13
2018-07-20T14:47:56.383Z,100763.94
2018-07-20T14:50:25.276Z,100764.55
2018-07-20T14:52:54.114Z,100765.34
2018-07-20T14:55:22.970Z,100758.09
2018-07-20T14:57:51.854Z,100753.91
2018-07-20T15:00:20.676Z,100750.59
2018-07-20T15:02:49.528Z,100744.45
2018-07-20T15:05:18.371Z,100741.12
2018-07-20T15:07:47.225Z,100734.66
2018-07-20T15:10:16.065Z,100736.13
2018-07-20T15:12:44.887Z,100736.47
2018-07-20T15:15:13.769Z,100732.55
2018-07-20T15:17:42.601Z,100722.86
2018-07-20T15:20:11.433Z,100723.77
2018-07-20T15:22:40.349Z,100726.57
2018-07-20T15:25:09.189Z,100722.13
2018-07-20T15:27:38.031Z,100718.56
2018-07-20T15:30:06.949Z,100721.25
2018-07-20T15:32:35.785Z,100712.49
2018-07-20T15:35:04.634Z,100705.23
2018-07-20T15:37:33.620Z,100702.20
2018-07-20T15:40:02.477Z,100706.69
2018-07-20T15:42:31.317Z,100704.98
2018-07-20T15:45:00.196Z,100697.73
2018-07-20T15:47:29.162Z,100697.89
2018-07-20T15:49:57.879Z,100696.84
2018-07-20T15:55:13.230Z,100691.30
2018-07-20T15:57:42.115Z,100691.30
2018-07-20T16:00:10.988Z,100700.76
2018-07-20T16:02:39.867Z,100689.38
2018-07-20T16:05:08.697Z,100695.55
2018-07-20T16:07:37.590Z,100692.05
2018-07-20T16:10:06.466Z,100689.31
2018-07-20T16:12:35.305Z,100679.55
2018-07-20T16:15:04.284Z,100675.42
2018-07-20T16:17:33.140Z,100690.47
2018-07-20T16:20:02.044Z,100685.14
2018-07-20T16:22:30.896Z,100685.08
2018-07-20T16:24:59.733Z,100682.77
2018-07-20T16:27:28.676Z,100677.94
2018-07-20T16:29:57.553Z,100683.09
2018-07-20T16:32:26.405Z,100682.22
2018-07-20T16:34:55.271Z,100679.70
2018-07-20T16:37:24.319Z,100674.34
2018-07-20T16:39:53.198Z,100677.58
2018-07-20T16:42:22.048Z,100679.72
2018-07-20T16:44:51.240Z,100680.27
2018-07-20T16:47:20.132Z,100679.92
2018-07-20T16:49:48.958Z,100682.84
2018-07-20T16:52:17.941Z,100684.09
2018-07-20T16:54:46.981Z,100682.34
2018-07-20T16:57:16.144Z,100683.59
2018-07-20T16:59:44.994Z,100686.00
2018-07-20T17:02:13.825Z,100691.20
2018-07-20T17:04:42.693Z,100692.97
2018-07-20T17:07:11.520Z,100694.92
2018-07-20T17:09:40.352Z,100694.53
2018-07-20T17:12:09.307Z,100694.74
2018-07-20T17:14:38.188Z,100696.13
2018-07-20T17:17:07.013Z,100702.55
2018-07-20T17:19:35.866Z,100695.49
2018-07-20T17:22:06.557Z,100697.14
2018-07-20T17:24:35.448Z,100695.67
2018-07-20T17:27:04.588Z,100701.48
2018-07-20T17:29:33.469Z,100694.98
2018-07-20T17:32:02.437Z,100695.81
2018-07-20T17:34:31.280Z,100692.19
2018-07-20T17:37:00.149Z,100694.18
2018-07-20T17:39:29.013Z,100694.77
2018-07-20T17:41:57.867Z,100694.92
2018-07-20T17:44:28.089Z,100698.19
2018-07-20T17:46:56.917Z,100696.02
2018-07-20T17:49:25.750Z,100706.25
2018-07-20T17:51:54.610Z,100702.88
2018-07-20T17:54:23.518Z,100704.31
2018-07-20T17:56:52.329Z,100693.92
2018-07-20T17:59:21.168Z,100694.66
2018-07-20T18:01:50.280Z,100693.16
2018-07-20T18:04:19.160Z,100689.94
2018-07-20T18:06:51.709Z,100694.53
2018-07-20T18:09:20.551Z,100691.95
2018-07-20T18:11:49.458Z,100694.31
2018-07-20T18:14:18.509Z,100692.02
2018-07-20T18:16:47.377Z,100698.13
2018-07-20T18:19:16.238Z,100698.06
2018-07-20T18:21:45.094Z,100695.20
2018-07-20T18:24:13.942Z,100689.05
2018-07-20T18:26:42.842Z,100688.69
2018-07-20T18:29:19.071Z,100684.39
2018-07-20T18:31:47.908Z,100690.00
2018-07-20T18:34:16.771Z,100691.77
2018-07-20T18:36:45.664Z,100689.91
2018-07-20T18:39:14.581Z,100685.66
2018-07-20T18:41:43.361Z,100690.32
2018-07-20T18:44:12.211Z,100688.49
2018-07-20T18:46:41.061Z,100691.45
2018-07-20T18:49:09.928Z,100690.16
2018-07-20T18:51:38.770Z,100689.66
2018-07-20T18:54:07.623Z,100689.56
2018-07-20T18:56:36.471Z,100688.59
2018-07-20T18:59:05.329Z,100685.36
2018-07-20T19:01:34.207Z,100686.42
2018-07-20T19:04:03.071Z,100684.27
2018-07-20T19:06:32.042Z,100691.03
2018-07-20T19:09:00.971Z,100693.28
2018-07-20T19:11:36.108Z,100697.34
2018-07-20T19:14:04.945Z,100700.73
2018-07-20T19:16:33.843Z,100699.15
2018-07-20T19:19:02.999Z,100697.73
2018-07-20T19:21:31.876Z,100692.05
2018-07-20T19:24:00.851Z,100695.66
2018-07-20T19:26:29.556Z,100695.97
2018-07-20T19:28:58.474Z,100699.13
2018-07-20T19:31:27.346Z,100701.14
2018-07-20T19:33:59.429Z,100709.28
2018-07-20T19:36:28.325Z,100705.90
2018-07-20T19:38:57.190Z,100700.39
2018-07-20T19:41:25.983Z,100708.56
2018-07-20T19:43:54.851Z,100715.06
2018-07-20T19:46:23.756Z,100715.86
2018-07-20T19:48:52.558Z,100721.27
2018-07-20T19:51:21.403Z,100724.33
2018-07-20T19:53:50.238Z,100726.48
2018-07-20T19:56:19.326Z,100726.27
2018-07-20T19:58:48.288Z,100726.37
2018-07-20T20:01:17.052Z,100726.07
2018-07-20T20:03:46.042Z,100735.60
2018-07-20T20:06:14.917Z,100730.47
2018-07-20T20:08:43.802Z,100730.61
2018-07-20T20:11:12.651Z,100730.52
2018-07-20T20:13:41.564Z,100728.24
2018-07-20T20:16:10.456Z,100734.85
2018-07-20T20:18:39.382Z,100732.64
2018-07-20T20:21:08.258Z,100732.50
2018-07-20T20:23:37.157Z,100729.64
2018-07-20T20:26:06.252Z,100738.56
2018-07-20T20:28:35.372Z,100732.40
2018-07-20T20:31:04.273Z,100741.13
2018-07-20T20:33:33.138Z,100740.81
2018-07-20T20:36:02.009Z,100738.66
2018-07-20T20:38:31.298Z,100735.58
2018-07-20T20:41:03.235Z,100739.41
2018-07-20T20:43:32.149Z,100734.48
2018-07-20T20:46:00.962Z,100728.02
2018-07-20T20:48:29.932Z,100729.33
2018-07-20T20:50:58.797Z,100730.53
2018-07-20T20:53:27.611Z,100724.94
2018-07-20T20:55:56.427Z,100726.11
2018-07-20T20:58:25.298Z,100725.66
2018-07-20T21:00:54.178Z,100730.62
2018-07-20T21:03:24.337Z,100729.51
2018-07-20T21:05:53.218Z,100722.64
2018-07-20T21:08:22.105Z,100720.51
2018-07-20T21:10:51.167Z,100716.58
2018-07-20T21:13:20.073Z,100720.35
2018-07-20T21:15:48.941Z,100716.33
2018-07-20T21:18:17.868Z,100708.52
2018-07-20T21:20:46.671Z,100712.59
2018-07-20T21:23:15.533Z,100712.44
2018-07-20T21:25:53.195Z,100715.39
2018-07-20T21:28:22.051Z,100710.02
2018-07-20T21:30:50.972Z,100707.09
2018-07-20T21:33:20.091Z,100705.66
2018-07-20T21:35:48.961Z,100707.79
2018-07-20T21:38:17.815Z,100710.05
2018-07-20T21:40:46.685Z,100705.31
2018-07-20T21:43:15.579Z,100705.16
2018-07-20T21:45:44.462Z,100693.12
2018-07-20T21:48:19.566Z,100688.34
2018-07-20T21:50:48.636Z,100691.33
2018-07-20T21:53:17.503Z,100695.76
2018-07-20T21:55:46.353Z,100701.38
2018-07-20T21:58:15.192Z,100695.76
2018-07-20T22:00:44.050Z,100695.29
2018-07-20T22:03:12.879Z,100692.20
2018-07-20T22:05:41.744Z,100692.05
2018-07-20T22:08:10.616Z,100692.33
2018-07-20T22:10:42.467Z,100695.31
2018-07-20T22:13:11.310Z,100692.48
2018-07-20T22:15:40.174Z,100692.70
2018-07-20T22:18:09.067Z,100692.13
2018-07-20T22:20:37.922Z,100691.28
2018-07-20T22:23:07.000Z,100693.40
2018-07-20T22:25:35.859Z,100696.27
2018-07-20T22:28:04.728Z,100696.49
2018-07-20T22:30:33.605Z,100693.69
2018-07-20T22:33:03.862Z,100691.98
2018-07-20T22:35:32.687Z,100688.50
2018-07-20T22:38:01.633Z,100688.63
2018-07-20T22:40:30.490Z,100688.03
2018-07-20T22:42:59.370Z,100687.18
2018-07-20T22:45:28.212Z,100679.55
2018-07-20T22:47:57.067Z,100683.38
2018-07-20T22:50:25.899Z,100690.10
2018-07-20T22:52:54.773Z,100689.05
2018-07-20T22:58:52.677Z,100690.73
2018-07-20T23:01:21.540Z,100682.34
2018-07-20T23:03:50.686Z,100680.97
2018-07-20T23:06:19.523Z,100678.00
2018-07-20T23:08:48.344Z,100672.20
2018-07-20T23:11:17.205Z,100671.70
2018-07-20T23:13:46.055Z,100665.55
2018-07-20T23:16:14.916Z,100665.36
2018-07-20T23:18:43.783Z,100661.58
2018-07-20T23:21:12.629Z,100663.81
2018-07-20T23:23:41.612Z,100656.32
2018-07-20T23:26:10.475Z,100652.50
2018-07-20T23:28:39.349Z,100658.47
2018-07-20T23:31:08.237Z,100657.31
2018-07-20T23:33:37.108Z,100656.56
2018-07-20T23:36:05.961Z,100655.72
2018-07-20T23:38:34.812Z,100652.53
2018-07-20T23:41:04.009Z,100650.91
2018-07-20T23:43:32.878Z,100650.06
2018-07-20T23:46:01.743Z,100648.08
2018-07-20T23:48:30.576Z,100648.95
2018-07-20T23:50:59.460Z,100654.05
2018-07-20T23:53:28.287Z,100658.08
2018-07-20T23:55:57.179Z,100657.76
2018-07-20T23:58:26.017Z,100655.11
